sensor_id;sensor_type;location;lat;lon;timestamp;P1;durP1;ratioP1;P2;durP2;ratioP2
22937;SDS011;11634;42.734;23.298;2023-07-13T00:01:50;8.30;;;7.18;;
22937;SDS011;11634;42.734;23.298;2023-07-13T00:04:17;10.52;;;7.32;;
22937;SDS011;11634;42.734;23.298;2023-07-13T00:06:46;8.02;;;7.22;;
22937;SDS011;11634;42.734;23.298;2023-07-13T00:09:12;9.55;;;7.95;;
22937;SDS011;11634;42.734;23.298;2023-07-13T00:11:42;10.55;;;8.23;;
22937;SDS011;11634;42.734;23.298;2023-07-13T00:14:10;9.50;;;8.00;;
22937;SDS011;11634;42.734;23.298;2023-07-13T00:16:36;9.55;;;7.70;;
22937;SDS011;11634;42.734;23.298;2023-07-13T00:19:09;8.32;;;7.63;;
22937;SDS011;11634;42.734;23.298;2023-07-13T00:21:35;9.27;;;7.45;;
22937;SDS011;11634;42.734;23.298;2023-07-13T00:24:01;11.38;;;7.95;;
22937;SDS011;11634;42.734;23.298;2023-07-13T00:26:28;9.18;;;6.80;;
22937;SDS011;11634;42.734;23.298;2023-07-13T00:28:54;6.85;;;4.95;;
22937;SDS011;11634;42.734;23.298;2023-07-13T00:31:20;5.72;;;4.60;;
22937;SDS011;11634;42.734;23.298;2023-07-13T00:33:46;12.77;;;6.60;;
22937;SDS011;11634;42.734;23.298;2023-07-13T00:36:13;7.78;;;5.97;;
22937;SDS011;11634;42.734;23.298;2023-07-13T00:38:39;6.43;;;4.10;;
22937;SDS011;11634;42.734;23.298;2023-07-13T00:41:08;12.32;;;5.07;;
22937;SDS011;11634;42.734;23.298;2023-07-13T00:43:35;10.15;;;6.60;;
22937;SDS011;11634;42.734;23.298;2023-07-13T00:48:27;71.18;;;9.85;;
22937;SDS011;11634;42.734;23.298;2023-07-13T00:51:01;16.70;;;7.28;;
22937;SDS011;11634;42.734;23.298;2023-07-13T00:53:28;23.80;;;11.73;;
22937;SDS011;11634;42.734;23.298;2023-07-13T00:55:56;4.30;;;3.20;;
22937;SDS011;11634;42.734;23.298;2023-07-13T00:58:24;6.68;;;3.80;;
22937;SDS011;11634;42.734;23.298;2023-07-13T01:00:51;6.10;;;3.95;;
22937;SDS011;11634;42.734;23.298;2023-07-13T01:03:17;4.75;;;3.20;;
22937;SDS011;11634;42.734;23.298;2023-07-13T01:05:44;5.78;;;4.13;;
22937;SDS011;11634;42.734;23.298;2023-07-13T01:08:13;7.05;;;3.35;;
22937;SDS011;11634;42.734;23.298;2023-07-13T01:10:39;6.57;;;3.53;;
22937;SDS011;11634;42.734;23.298;2023-07-13T01:13:05;5.80;;;4.10;;
22937;SDS011;11634;42.734;23.298;2023-07-13T01:15:39;8.55;;;6.78;;
22937;SDS011;11634;42.734;23.298;2023-07-13T01:18:09;8.27;;;6.15;;
22937;SDS011;11634;42.734;23.298;2023-07-13T01:20:56;8.15;;;5.88;;
22937;SDS011;11634;42.734;23.298;2023-07-13T01:23:24;5.63;;;4.05;;
22937;SDS011;11634;42.734;23.298;2023-07-13T01:25:50;8.25;;;4.95;;
22937;SDS011;11634;42.734;23.298;2023-07-13T01:28:17;8.10;;;6.45;;
22937;SDS011;11634;42.734;23.298;2023-07-13T01:30:44;5.88;;;5.32;;
22937;SDS011;11634;42.734;23.298;2023-07-13T01:33:11;7.55;;;5.97;;
22937;SDS011;11634;42.734;23.298;2023-07-13T01:35:39;6.90;;;4.82;;
22937;SDS011;11634;42.734;23.298;2023-07-13T01:38:05;11.45;;;5.20;;
22937;SDS011;11634;42.734;23.298;2023-07-13T01:40:31;148.48;;;13.48;;
22937;SDS011;11634;42.734;23.298;2023-07-13T01:42:58;7.68;;;6.68;;
22937;SDS011;11634;42.734;23.298;2023-07-13T01:45:23;9.93;;;7.05;;
22937;SDS011;11634;42.734;23.298;2023-07-13T01:47:49;8.63;;;7.75;;
22937;SDS011;11634;42.734;23.298;2023-07-13T01:50:14;9.00;;;7.90;;
22937;SDS011;11634;42.734;23.298;2023-07-13T01:52:41;9.70;;;7.13;;
22937;SDS011;11634;42.734;23.298;2023-07-13T01:55:07;8.65;;;7.40;;
22937;SDS011;11634;42.734;23.298;2023-07-13T01:57:34;10.18;;;7.70;;
22937;SDS011;11634;42.734;23.298;2023-07-13T02:00:00;7.55;;;6.85;;
22937;SDS011;11634;42.734;23.298;2023-07-13T02:02:40;8.70;;;7.22;;
22937;SDS011;11634;42.734;23.298;2023-07-13T02:05:08;8.45;;;7.25;;
22937;SDS011;11634;42.734;23.298;2023-07-13T02:07:34;7.80;;;6.95;;
22937;SDS011;11634;42.734;23.298;2023-07-13T02:10:00;10.10;;;6.93;;
22937;SDS011;11634;42.734;23.298;2023-07-13T02:12:25;7.70;;;6.97;;
22937;SDS011;11634;42.734;23.298;2023-07-13T02:14:51;7.63;;;6.93;;
22937;SDS011;11634;42.734;23.298;2023-07-13T02:17:16;7.88;;;7.07;;
22937;SDS011;11634;42.734;23.298;2023-07-13T02:19:43;7.63;;;6.60;;
22937;SDS011;11634;42.734;23.298;2023-07-13T02:22:08;8.43;;;6.97;;
22937;SDS011;11634;42.734;23.298;2023-07-13T02:24:34;7.75;;;6.97;;
22937;SDS011;11634;42.734;23.298;2023-07-13T02:27:00;7.60;;;6.50;;
22937;SDS011;11634;42.734;23.298;2023-07-13T02:29:26;8.07;;;6.90;;
22937;SDS011;11634;42.734;23.298;2023-07-13T02:31:51;7.47;;;6.63;;
22937;SDS011;11634;42.734;23.298;2023-07-13T02:34:17;7.90;;;6.88;;
22937;SDS011;11634;42.734;23.298;2023-07-13T02:36:42;8.05;;;7.25;;
22937;SDS011;11634;42.734;23.298;2023-07-13T02:39:08;7.28;;;6.57;;
22937;SDS011;11634;42.734;23.298;2023-07-13T02:41:35;9.95;;;7.35;;
22937;SDS011;11634;42.734;23.298;2023-07-13T02:44:02;8.82;;;7.03;;
22937;SDS011;11634;42.734;23.298;2023-07-13T02:46:30;7.47;;;6.68;;
22937;SDS011;11634;42.734;23.298;2023-07-13T02:48:58;9.00;;;7.40;;
22937;SDS011;11634;42.734;23.298;2023-07-13T02:51:25;9.13;;;7.20;;
22937;SDS011;11634;42.734;23.298;2023-07-13T02:53:52;8.23;;;7.15;;
22937;SDS011;11634;42.734;23.298;2023-07-13T02:56:25;9.20;;;7.70;;
22937;SDS011;11634;42.734;23.298;2023-07-13T02:58:52;9.27;;;7.38;;
22937;SDS011;11634;42.734;23.298;2023-07-13T03:01:19;8.45;;;6.88;;
22937;SDS011;11634;42.734;23.298;2023-07-13T03:03:46;10.77;;;7.78;;
22937;SDS011;11634;42.734;23.298;2023-07-13T03:06:12;12.20;;;7.25;;
22937;SDS011;11634;42.734;23.298;2023-07-13T03:08:46;9.02;;;7.07;;
22937;SDS011;11634;42.734;23.298;2023-07-13T03:11:15;8.77;;;7.88;;
22937;SDS011;11634;42.734;23.298;2023-07-13T03:13:46;9.80;;;8.13;;
22937;SDS011;11634;42.734;23.298;2023-07-13T03:16:13;13.60;;;7.70;;
22937;SDS011;11634;42.734;23.298;2023-07-13T03:18:45;10.25;;;7.70;;
22937;SDS011;11634;42.734;23.298;2023-07-13T03:21:11;9.15;;;8.02;;
22937;SDS011;11634;42.734;23.298;2023-07-13T03:23:38;13.45;;;7.95;;
22937;SDS011;11634;42.734;23.298;2023-07-13T03:26:11;9.52;;;7.80;;
22937;SDS011;11634;42.734;23.298;2023-07-13T03:28:41;11.60;;;8.02;;
22937;SDS011;11634;42.734;23.298;2023-07-13T03:31:15;14.40;;;7.95;;
22937;SDS011;11634;42.734;23.298;2023-07-13T03:33:43;10.48;;;6.85;;
22937;SDS011;11634;42.734;23.298;2023-07-13T03:36:12;11.05;;;7.60;;
22937;SDS011;11634;42.734;23.298;2023-07-13T03:38:42;10.95;;;7.82;;
22937;SDS011;11634;42.734;23.298;2023-07-13T03:41:08;11.50;;;7.95;;
22937;SDS011;11634;42.734;23.298;2023-07-13T03:43:34;10.43;;;7.47;;
22937;SDS011;11634;42.734;23.298;2023-07-13T03:45:59;11.27;;;8.48;;
22937;SDS011;11634;42.734;23.298;2023-07-13T03:48:25;9.93;;;7.70;;
22937;SDS011;11634;42.734;23.298;2023-07-13T03:50:50;11.60;;;7.72;;
22937;SDS011;11634;42.734;23.298;2023-07-13T03:53:16;11.00;;;8.65;;
22937;SDS011;11634;42.734;23.298;2023-07-13T03:55:41;11.88;;;7.65;;
22937;SDS011;11634;42.734;23.298;2023-07-13T03:58:29;12.65;;;7.75;;
22937;SDS011;11634;42.734;23.298;2023-07-13T04:01:03;10.05;;;8.13;;
22937;SDS011;11634;42.734;23.298;2023-07-13T04:03:31;15.00;;;8.18;;
22937;SDS011;11634;42.734;23.298;2023-07-13T04:05:59;11.82;;;8.13;;
22937;SDS011;11634;42.734;23.298;2023-07-13T04:08:35;9.27;;;7.95;;
22937;SDS011;11634;42.734;23.298;2023-07-13T04:11:02;13.77;;;7.93;;
22937;SDS011;11634;42.734;23.298;2023-07-13T04:13:28;13.25;;;7.95;;
22937;SDS011;11634;42.734;23.298;2023-07-13T04:15:54;10.05;;;7.93;;
22937;SDS011;11634;42.734;23.298;2023-07-13T04:18:20;14.43;;;7.97;;
22937;SDS011;11634;42.734;23.298;2023-07-13T04:20:47;10.25;;;7.22;;
22937;SDS011;11634;42.734;23.298;2023-07-13T04:23:13;9.75;;;6.65;;
22937;SDS011;11634;42.734;23.298;2023-07-13T04:25:39;7.55;;;6.85;;
22937;SDS011;11634;42.734;23.298;2023-07-13T04:28:10;9.98;;;7.05;;
22937;SDS011;11634;42.734;23.298;2023-07-13T04:30:35;12.35;;;7.78;;
22937;SDS011;11634;42.734;23.298;2023-07-13T04:33:02;11.57;;;7.80;;
22937;SDS011;11634;42.734;23.298;2023-07-13T04:35:28;14.93;;;8.57;;
22937;SDS011;11634;42.734;23.298;2023-07-13T04:37:53;12.52;;;8.48;;
22937;SDS011;11634;42.734;23.298;2023-07-13T04:40:20;10.23;;;8.13;;
22937;SDS011;11634;42.734;23.298;2023-07-13T04:42:45;13.15;;;8.27;;
22937;SDS011;11634;42.734;23.298;2023-07-13T04:45:12;8.75;;;6.65;;
22937;SDS011;11634;42.734;23.298;2023-07-13T04:47:38;7.75;;;6.20;;
22937;SDS011;11634;42.734;23.298;2023-07-13T04:50:04;11.25;;;6.40;;
22937;SDS011;11634;42.734;23.298;2023-07-13T04:52:30;8.98;;;6.40;;
22937;SDS011;11634;42.734;23.298;2023-07-13T04:54:57;10.05;;;6.13;;
22937;SDS011;11634;42.734;23.298;2023-07-13T04:57:23;7.95;;;6.35;;
22937;SDS011;11634;42.734;23.298;2023-07-13T04:59:49;8.95;;;6.30;;
22937;SDS011;11634;42.734;23.298;2023-07-13T05:02:14;6.53;;;5.93;;
22937;SDS011;11634;42.734;23.298;2023-07-13T05:04:41;8.38;;;6.10;;
22937;SDS011;11634;42.734;23.298;2023-07-13T05:07:07;8.55;;;5.72;;
22937;SDS011;11634;42.734;23.298;2023-07-13T05:09:34;7.30;;;6.00;;
22937;SDS011;11634;42.734;23.298;2023-07-13T05:11:59;11.55;;;6.00;;
22937;SDS011;11634;42.734;23.298;2023-07-13T05:14:25;13.35;;;7.22;;
22937;SDS011;11634;42.734;23.298;2023-07-13T05:16:51;8.40;;;6.57;;
22937;SDS011;11634;42.734;23.298;2023-07-13T05:19:19;8.57;;;6.28;;
22937;SDS011;11634;42.734;23.298;2023-07-13T05:21:44;8.13;;;7.00;;
22937;SDS011;11634;42.734;23.298;2023-07-13T05:24:10;33.88;;;23.55;;
22937;SDS011;11634;42.734;23.298;2023-07-13T05:26:35;20.35;;;15.00;;
22937;SDS011;11634;42.734;23.298;2023-07-13T05:29:01;10.13;;;7.82;;
22937;SDS011;11634;42.734;23.298;2023-07-13T05:31:31;15.77;;;6.70;;
22937;SDS011;11634;42.734;23.298;2023-07-13T05:33:57;12.05;;;7.80;;
22937;SDS011;11634;42.734;23.298;2023-07-13T05:36:22;8.57;;;7.40;;
22937;SDS011;11634;42.734;23.298;2023-07-13T05:38:48;7.15;;;6.15;;
22937;SDS011;11634;42.734;23.298;2023-07-13T05:41:13;10.80;;;6.95;;
22937;SDS011;11634;42.734;23.298;2023-07-13T05:43:40;9.23;;;7.20;;
22937;SDS011;11634;42.734;23.298;2023-07-13T05:46:06;7.03;;;4.88;;
22937;SDS011;11634;42.734;23.298;2023-07-13T05:48:31;8.80;;;5.07;;
22937;SDS011;11634;42.734;23.298;2023-07-13T05:50:57;9.63;;;5.25;;
22937;SDS011;11634;42.734;23.298;2023-07-13T05:53:23;7.88;;;5.07;;
22937;SDS011;11634;42.734;23.298;2023-07-13T05:55:48;8.35;;;4.72;;
22937;SDS011;11634;42.734;23.298;2023-07-13T05:58:18;6.75;;;4.18;;
22937;SDS011;11634;42.734;23.298;2023-07-13T06:00:44;6.55;;;4.28;;
22937;SDS011;11634;42.734;23.298;2023-07-13T06:03:10;5.13;;;4.05;;
22937;SDS011;11634;42.734;23.298;2023-07-13T06:05:35;4.70;;;3.80;;
22937;SDS011;11634;42.734;23.298;2023-07-13T06:08:03;6.90;;;4.95;;
22937;SDS011;11634;42.734;23.298;2023-07-13T06:10:29;4.93;;;4.40;;
22937;SDS011;11634;42.734;23.298;2023-07-13T06:12:57;6.30;;;4.82;;
22937;SDS011;11634;42.734;23.298;2023-07-13T06:15:22;9.18;;;5.40;;
22937;SDS011;11634;42.734;23.298;2023-07-13T06:17:50;7.43;;;5.60;;
22937;SDS011;11634;42.734;23.298;2023-07-13T06:20:15;9.23;;;6.10;;
22937;SDS011;11634;42.734;23.298;2023-07-13T06:22:41;7.40;;;4.13;;
22937;SDS011;11634;42.734;23.298;2023-07-13T06:25:07;8.82;;;4.15;;
22937;SDS011;11634;42.734;23.298;2023-07-13T06:27:33;5.10;;;3.85;;
22937;SDS011;11634;42.734;23.298;2023-07-13T06:29:59;6.82;;;3.38;;
22937;SDS011;11634;42.734;23.298;2023-07-13T06:32:24;3.13;;;2.40;;
22937;SDS011;11634;42.734;23.298;2023-07-13T06:34:50;6.72;;;4.85;;
22937;SDS011;11634;42.734;23.298;2023-07-13T06:37:17;5.00;;;4.05;;
22937;SDS011;11634;42.734;23.298;2023-07-13T06:39:43;7.47;;;4.05;;
22937;SDS011;11634;42.734;23.298;2023-07-13T06:42:09;7.95;;;4.30;;
22937;SDS011;11634;42.734;23.298;2023-07-13T06:44:35;4.93;;;3.65;;
22937;SDS011;11634;42.734;23.298;2023-07-13T06:47:00;9.02;;;4.03;;
22937;SDS011;11634;42.734;23.298;2023-07-13T06:49:26;11.25;;;4.35;;
22937;SDS011;11634;42.734;23.298;2023-07-13T06:51:51;7.32;;;4.38;;
22937;SDS011;11634;42.734;23.298;2023-07-13T06:54:17;8.30;;;4.05;;
22937;SDS011;11634;42.734;23.298;2023-07-13T06:56:42;5.53;;;4.22;;
22937;SDS011;11634;42.734;23.298;2023-07-13T06:59:08;6.75;;;4.47;;
22937;SDS011;11634;42.734;23.298;2023-07-13T07:01:34;8.23;;;4.35;;
22937;SDS011;11634;42.734;23.298;2023-07-13T07:03:59;5.80;;;4.40;;
22937;SDS011;11634;42.734;23.298;2023-07-13T07:06:25;5.57;;;4.45;;
22937;SDS011;11634;42.734;23.298;2023-07-13T07:08:51;9.35;;;3.85;;
22937;SDS011;11634;42.734;23.298;2023-07-13T07:11:19;9.13;;;4.07;;
22937;SDS011;11634;42.734;23.298;2023-07-13T07:13:47;6.85;;;4.18;;
22937;SDS011;11634;42.734;23.298;2023-07-13T07:16:16;7.35;;;4.20;;
22937;SDS011;11634;42.734;23.298;2023-07-13T07:18:42;7.10;;;4.15;;
22937;SDS011;11634;42.734;23.298;2023-07-13T07:21:08;10.35;;;4.90;;
22937;SDS011;11634;42.734;23.298;2023-07-13T07:23:35;11.18;;;5.50;;
22937;SDS011;11634;42.734;23.298;2023-07-13T07:26:01;6.63;;;4.93;;
22937;SDS011;11634;42.734;23.298;2023-07-13T07:28:27;10.35;;;5.55;;
22937;SDS011;11634;42.734;23.298;2023-07-13T07:30:54;7.63;;;5.38;;
22937;SDS011;11634;42.734;23.298;2023-07-13T07:33:26;6.28;;;5.13;;
22937;SDS011;11634;42.734;23.298;2023-07-13T07:35:52;8.75;;;5.47;;
22937;SDS011;11634;42.734;23.298;2023-07-13T07:38:18;9.23;;;5.50;;
22937;SDS011;11634;42.734;23.298;2023-07-13T07:40:43;8.25;;;6.70;;
22937;SDS011;11634;42.734;23.298;2023-07-13T07:43:10;8.85;;;6.22;;
22937;SDS011;11634;42.734;23.298;2023-07-13T07:45:38;12.93;;;6.88;;
22937;SDS011;11634;42.734;23.298;2023-07-13T07:48:07;10.65;;;6.97;;
22937;SDS011;11634;42.734;23.298;2023-07-13T07:50:35;17.17;;;6.97;;
22937;SDS011;11634;42.734;23.298;2023-07-13T07:53:02;16.10;;;7.18;;
22937;SDS011;11634;42.734;23.298;2023-07-13T07:55:28;8.23;;;7.10;;
22937;SDS011;11634;42.734;23.298;2023-07-13T07:57:55;13.73;;;7.40;;
22937;SDS011;11634;42.734;23.298;2023-07-13T08:00:22;8.80;;;7.25;;
22937;SDS011;11634;42.734;23.298;2023-07-13T08:02:48;10.48;;;7.47;;
22937;SDS011;11634;42.734;23.298;2023-07-13T08:05:13;11.45;;;7.68;;
22937;SDS011;11634;42.734;23.298;2023-07-13T08:07:39;11.18;;;7.90;;
22937;SDS011;11634;42.734;23.298;2023-07-13T08:10:08;12.18;;;7.75;;
22937;SDS011;11634;42.734;23.298;2023-07-13T08:12:34;10.90;;;8.05;;
22937;SDS011;11634;42.734;23.298;2023-07-13T08:15:04;12.25;;;7.07;;
22937;SDS011;11634;42.734;23.298;2023-07-13T08:17:31;8.30;;;6.20;;
22937;SDS011;11634;42.734;23.298;2023-07-13T08:19:56;8.90;;;7.43;;
22937;SDS011;11634;42.734;23.298;2023-07-13T08:22:23;11.50;;;6.88;;
22937;SDS011;11634;42.734;23.298;2023-07-13T08:24:49;10.85;;;7.32;;
22937;SDS011;11634;42.734;23.298;2023-07-13T08:27:24;11.15;;;7.25;;
22937;SDS011;11634;42.734;23.298;2023-07-13T08:29:51;11.13;;;7.68;;
22937;SDS011;11634;42.734;23.298;2023-07-13T08:32:17;11.10;;;8.30;;
22937;SDS011;11634;42.734;23.298;2023-07-13T08:34:44;10.27;;;8.63;;
22937;SDS011;11634;42.734;23.298;2023-07-13T08:37:11;9.18;;;7.90;;
22937;SDS011;11634;42.734;23.298;2023-07-13T08:39:36;11.80;;;7.90;;
22937;SDS011;11634;42.734;23.298;2023-07-13T08:47:44;8.23;;;5.75;;
22937;SDS011;11634;42.734;23.298;2023-07-13T08:50:15;9.45;;;6.47;;
22937;SDS011;11634;42.734;23.298;2023-07-13T08:52:46;12.18;;;8.98;;
22937;SDS011;11634;42.734;23.298;2023-07-13T08:55:14;14.75;;;9.20;;
22937;SDS011;11634;42.734;23.298;2023-07-13T08:57:44;11.82;;;9.52;;
22937;SDS011;11634;42.734;23.298;2023-07-13T09:00:13;12.40;;;9.40;;
22937;SDS011;11634;42.734;23.298;2023-07-13T09:10:52;12.27;;;8.38;;
22937;SDS011;11634;42.734;23.298;2023-07-13T09:13:29;15.27;;;8.43;;
22937;SDS011;11634;42.734;23.298;2023-07-13T09:16:05;11.45;;;8.02;;
22937;SDS011;11634;42.734;23.298;2023-07-13T09:19:05;11.27;;;7.88;;
22937;SDS011;11634;42.734;23.298;2023-07-13T09:21:32;12.38;;;8.25;;
22937;SDS011;11634;42.734;23.298;2023-07-13T09:24:46;13.20;;;7.45;;
22937;SDS011;11634;42.734;23.298;2023-07-13T09:27:01;17.02;;;7.53;;
22937;SDS011;11634;42.734;23.298;2023-07-13T09:29:48;8.52;;;7.03;;
22937;SDS011;11634;42.734;23.298;2023-07-13T09:32:26;10.73;;;7.93;;
22937;SDS011;11634;42.734;23.298;2023-07-13T09:34:53;11.30;;;7.70;;
22937;SDS011;11634;42.734;23.298;2023-07-13T09:37:24;15.52;;;8.27;;
22937;SDS011;11634;42.734;23.298;2023-07-13T09:39:55;8.45;;;7.10;;
22937;SDS011;11634;42.734;23.298;2023-07-13T09:42:23;12.60;;;7.60;;
22937;SDS011;11634;42.734;23.298;2023-07-13T09:47:22;16.10;;;7.30;;
22937;SDS011;11634;42.734;23.298;2023-07-13T09:52:23;9.68;;;6.88;;
22937;SDS011;11634;42.734;23.298;2023-07-13T09:54:51;16.20;;;7.55;;
22937;SDS011;11634;42.734;23.298;2023-07-13T09:57:22;10.23;;;8.07;;
22937;SDS011;11634;42.734;23.298;2023-07-13T09:59:49;11.95;;;7.35;;
22937;SDS011;11634;42.734;23.298;2023-07-13T10:02:37;10.05;;;8.15;;
22937;SDS011;11634;42.734;23.298;2023-07-13T10:05:06;10.38;;;7.63;;
22937;SDS011;11634;42.734;23.298;2023-07-13T10:07:39;11.65;;;6.22;;
22937;SDS011;11634;42.734;23.298;2023-07-13T10:10:14;9.13;;;5.93;;
22937;SDS011;11634;42.734;23.298;2023-07-13T10:12:41;9.70;;;5.80;;
22937;SDS011;11634;42.734;23.298;2023-07-13T10:15:09;6.55;;;5.22;;
22937;SDS011;11634;42.734;23.298;2023-07-13T10:17:41;9.88;;;5.97;;
22937;SDS011;11634;42.734;23.298;2023-07-13T10:20:09;8.43;;;5.47;;
22937;SDS011;11634;42.734;23.298;2023-07-13T10:25:23;9.85;;;6.53;;
22937;SDS011;11634;42.734;23.298;2023-07-13T10:27:52;10.15;;;5.53;;
22937;SDS011;11634;42.734;23.298;2023-07-13T10:30:22;10.77;;;5.93;;
22937;SDS011;11634;42.734;23.298;2023-07-13T10:32:53;6.15;;;5.10;;
22937;SDS011;11634;42.734;23.298;2023-07-13T10:35:20;5.88;;;4.70;;
22937;SDS011;11634;42.734;23.298;2023-07-13T10:40:19;7.15;;;4.43;;
22937;SDS011;11634;42.734;23.298;2023-07-13T10:42:59;6.40;;;5.00;;
22937;SDS011;11634;42.734;23.298;2023-07-13T10:45:30;9.88;;;5.10;;
22937;SDS011;11634;42.734;23.298;2023-07-13T10:48:00;8.23;;;4.75;;
22937;SDS011;11634;42.734;23.298;2023-07-13T10:50:28;8.00;;;4.70;;
22937;SDS011;11634;42.734;23.298;2023-07-13T10:53:02;19.27;;;6.07;;
22937;SDS011;11634;42.734;23.298;2023-07-13T10:58:38;6.32;;;4.80;;
22937;SDS011;11634;42.734;23.298;2023-07-13T11:03:32;10.32;;;4.50;;
22937;SDS011;11634;42.734;23.298;2023-07-13T11:06:16;8.70;;;4.95;;
22937;SDS011;11634;42.734;23.298;2023-07-13T11:09:17;7.40;;;4.53;;
22937;SDS011;11634;42.734;23.298;2023-07-13T11:11:43;23.63;;;6.20;;
22937;SDS011;11634;42.734;23.298;2023-07-13T11:16:55;9.32;;;4.70;;
22937;SDS011;11634;42.734;23.298;2023-07-13T11:27:45;8.75;;;4.63;;
22937;SDS011;11634;42.734;23.298;2023-07-13T11:32:50;5.80;;;5.03;;
22937;SDS011;11634;42.734;23.298;2023-07-13T11:35:27;6.80;;;4.60;;
22937;SDS011;11634;42.734;23.298;2023-07-13T11:37:53;12.20;;;5.38;;
22937;SDS011;11634;42.734;23.298;2023-07-13T11:40:19;5.57;;;4.60;;
22937;SDS011;11634;42.734;23.298;2023-07-13T11:42:50;8.43;;;5.15;;
22937;SDS011;11634;42.734;23.298;2023-07-13T11:45:20;8.75;;;5.53;;
22937;SDS011;11634;42.734;23.298;2023-07-13T11:47:48;8.57;;;4.80;;
22937;SDS011;11634;42.734;23.298;2023-07-13T11:50:20;8.00;;;5.07;;
22937;SDS011;11634;42.734;23.298;2023-07-13T11:52:48;10.55;;;5.78;;
22937;SDS011;11634;42.734;23.298;2023-07-13T11:55:17;8.57;;;4.68;;
22937;SDS011;11634;42.734;23.298;2023-07-13T11:57:45;13.10;;;5.35;;
22937;SDS011;11634;42.734;23.298;2023-07-13T12:00:16;9.07;;;4.53;;
22937;SDS011;11634;42.734;23.298;2023-07-13T12:02:45;7.00;;;4.82;;
22937;SDS011;11634;42.734;23.298;2023-07-13T12:05:16;9.05;;;4.40;;
22937;SDS011;11634;42.734;23.298;2023-07-13T12:07:44;8.93;;;4.60;;
22937;SDS011;11634;42.734;23.298;2023-07-13T12:12:40;9.05;;;5.22;;
22937;SDS011;11634;42.734;23.298;2023-07-13T12:15:13;6.60;;;4.78;;
22937;SDS011;11634;42.734;23.298;2023-07-13T12:17:41;11.98;;;4.80;;
22937;SDS011;11634;42.734;23.298;2023-07-13T12:20:19;8.20;;;4.50;;
22937;SDS011;11634;42.734;23.298;2023-07-13T12:22:50;11.88;;;5.40;;
22937;SDS011;11634;42.734;23.298;2023-07-13T12:25:20;12.02;;;5.70;;
22937;SDS011;11634;42.734;23.298;2023-07-13T12:27:48;10.68;;;5.20;;
22937;SDS011;11634;42.734;23.298;2023-07-13T12:30:26;8.63;;;4.90;;
22937;SDS011;11634;42.734;23.298;2023-07-13T12:32:56;9.50;;;5.07;;
22937;SDS011;11634;42.734;23.298;2023-07-13T12:35:26;7.10;;;4.90;;
22937;SDS011;11634;42.734;23.298;2023-07-13T12:38:00;8.15;;;5.22;;
22937;SDS011;11634;42.734;23.298;2023-07-13T12:40:29;10.07;;;5.07;;
22937;SDS011;11634;42.734;23.298;2023-07-13T12:42:58;7.55;;;5.07;;
22937;SDS011;11634;42.734;23.298;2023-07-13T12:45:25;9.85;;;4.88;;
22937;SDS011;11634;42.734;23.298;2023-07-13T12:47:54;7.85;;;4.57;;
22937;SDS011;11634;42.734;23.298;2023-07-13T12:50:29;12.00;;;5.60;;
22937;SDS011;11634;42.734;23.298;2023-07-13T12:53:01;6.57;;;4.72;;
22937;SDS011;11634;42.734;23.298;2023-07-13T12:55:40;15.93;;;5.10;;
22937;SDS011;11634;42.734;23.298;2023-07-13T12:58:09;9.15;;;5.00;;
22937;SDS011;11634;42.734;23.298;2023-07-13T13:00:48;10.63;;;4.90;;
22937;SDS011;11634;42.734;23.298;2023-07-13T13:03:30;6.78;;;4.40;;
22937;SDS011;11634;42.734;23.298;2023-07-13T13:08:41;8.52;;;5.03;;
22937;SDS011;11634;42.734;23.298;2023-07-13T13:11:09;8.60;;;5.05;;
22937;SDS011;11634;42.734;23.298;2023-07-13T13:13:34;4.95;;;4.38;;
22937;SDS011;11634;42.734;23.298;2023-07-13T13:16:11;6.85;;;4.60;;
22937;SDS011;11634;42.734;23.298;2023-07-13T13:18:39;15.15;;;5.60;;
22937;SDS011;11634;42.734;23.298;2023-07-13T13:21:05;11.90;;;5.47;;
22937;SDS011;11634;42.734;23.298;2023-07-13T13:23:31;7.57;;;4.95;;
22937;SDS011;11634;42.734;23.298;2023-07-13T13:25:57;7.40;;;4.93;;
22937;SDS011;11634;42.734;23.298;2023-07-13T13:28:23;8.98;;;5.07;;
22937;SDS011;11634;42.734;23.298;2023-07-13T13:30:49;14.63;;;5.43;;
22937;SDS011;11634;42.734;23.298;2023-07-13T13:33:16;6.60;;;4.57;;
22937;SDS011;11634;42.734;23.298;2023-07-13T13:35:44;8.35;;;4.60;;
22937;SDS011;11634;42.734;23.298;2023-07-13T13:38:13;10.23;;;5.40;;
22937;SDS011;11634;42.734;23.298;2023-07-13T13:40:41;8.07;;;4.80;;
22937;SDS011;11634;42.734;23.298;2023-07-13T13:43:17;9.27;;;5.10;;
22937;SDS011;11634;42.734;23.298;2023-07-13T13:45:51;9.63;;;4.88;;
22937;SDS011;11634;42.734;23.298;2023-07-13T13:48:19;10.70;;;4.70;;
22937;SDS011;11634;42.734;23.298;2023-07-13T13:50:55;7.47;;;4.85;;
22937;SDS011;11634;42.734;23.298;2023-07-13T13:53:22;10.45;;;5.15;;
22937;SDS011;11634;42.734;23.298;2023-07-13T13:55:49;11.15;;;4.95;;
22937;SDS011;11634;42.734;23.298;2023-07-13T13:58:15;6.93;;;4.15;;
22937;SDS011;11634;42.734;23.298;2023-07-13T14:00:41;9.25;;;5.07;;
22937;SDS011;11634;42.734;23.298;2023-07-13T14:03:17;8.25;;;4.82;;
22937;SDS011;11634;42.734;23.298;2023-07-13T14:05:44;10.30;;;5.03;;
22937;SDS011;11634;42.734;23.298;2023-07-13T14:08:14;10.20;;;5.13;;
22937;SDS011;11634;42.734;23.298;2023-07-13T14:10:42;9.20;;;4.93;;
22937;SDS011;11634;42.734;23.298;2023-07-13T14:13:22;15.05;;;5.00;;
22937;SDS011;11634;42.734;23.298;2023-07-13T14:15:53;11.18;;;4.85;;
22937;SDS011;11634;42.734;23.298;2023-07-13T14:18:19;9.60;;;4.90;;
22937;SDS011;11634;42.734;23.298;2023-07-13T14:20:46;6.97;;;4.82;;
22937;SDS011;11634;42.734;23.298;2023-07-13T14:23:16;7.78;;;5.30;;
22937;SDS011;11634;42.734;23.298;2023-07-13T14:25:44;7.50;;;4.82;;
22937;SDS011;11634;42.734;23.298;2023-07-13T14:28:21;6.68;;;4.20;;
22937;SDS011;11634;42.734;23.298;2023-07-13T14:30:52;9.13;;;4.32;;
22937;SDS011;11634;42.734;23.298;2023-07-13T14:33:19;10.55;;;4.80;;
22937;SDS011;11634;42.734;23.298;2023-07-13T14:35:45;8.75;;;4.90;;
22937;SDS011;11634;42.734;23.298;2023-07-13T14:38:13;12.07;;;5.32;;
22937;SDS011;11634;42.734;23.298;2023-07-13T14:40:41;14.52;;;5.38;;
22937;SDS011;11634;42.734;23.298;2023-07-13T14:43:10;9.30;;;5.22;;
22937;SDS011;11634;42.734;23.298;2023-07-13T14:45:39;9.02;;;5.60;;
22937;SDS011;11634;42.734;23.298;2023-07-13T14:48:19;14.73;;;5.03;;
22937;SDS011;11634;42.734;23.298;2023-07-13T14:50:50;9.52;;;5.00;;
22937;SDS011;11634;42.734;23.298;2023-07-13T14:53:18;8.70;;;4.93;;
22937;SDS011;11634;42.734;23.298;2023-07-13T14:55:44;10.15;;;4.75;;
22937;SDS011;11634;42.734;23.298;2023-07-13T14:58:10;11.02;;;5.30;;
22937;SDS011;11634;42.734;23.298;2023-07-13T15:00:35;9.27;;;4.85;;
22937;SDS011;11634;42.734;23.298;2023-07-13T15:03:02;7.35;;;4.90;;
22937;SDS011;11634;42.734;23.298;2023-07-13T15:05:31;8.27;;;5.35;;
22937;SDS011;11634;42.734;23.298;2023-07-13T15:07:58;7.82;;;5.03;;
22937;SDS011;11634;42.734;23.298;2023-07-13T15:10:28;7.63;;;4.40;;
22937;SDS011;11634;42.734;23.298;2023-07-13T15:13:17;11.25;;;5.40;;
22937;SDS011;11634;42.734;23.298;2023-07-13T15:15:46;12.15;;;4.97;;
22937;SDS011;11634;42.734;23.298;2023-07-13T15:18:14;10.25;;;5.20;;
22937;SDS011;11634;42.734;23.298;2023-07-13T15:20:43;6.80;;;4.60;;
22937;SDS011;11634;42.734;23.298;2023-07-13T15:23:13;9.45;;;4.68;;
22937;SDS011;11634;42.734;23.298;2023-07-13T15:25:43;8.73;;;5.00;;
22937;SDS011;11634;42.734;23.298;2023-07-13T15:28:09;7.40;;;5.30;;